Terminal Aerodrome Forecast
Issued by NWS

Home | Current Version | Previous Version | Text Only | Print | Product List | Glossary On
Versions: 1 2 3 4 5 6 7 8 9 10 11 12 13 14 15
079
FTUS45 KABQ 171739
TAFSAF
TAF
KSAF 171739Z 1718/1818 35013KT P6SM SKC
     FM171900 28007KT P6SM FEW250
     FM172200 22007KT P6SM SCT250
     FM180300 04006KT P6SM BKN008
     FM181600 22012G20KT P6SM SCT120=

USA.gov is the U.S. government's official web portal to all federal, state and local government web resources and services.